Time;durP1;ratioP1;P1;durP2;ratioP2;P2;SDS_P1;SDS_P2;PMS_P1;PMS_P2;Temp;Humidity;BMP_temperature;BMP_pressure;BME280_temperature;BME280_humidity;BME280_pressure;Samples;Min_cycle;Max_cycle;Signal;HPM_P1;HPM_P2
2021/10/05 00:01:46;;;;;;;15.77;2.60;;;15.30;99.90;;;14.76;100.00;100421.88;4115606;28;20077;-72
2021/10/05 00:03:47;;;;;;;16.45;3.75;;;15.30;99.90;;;14.78;100.00;100417.22;4115782;28;20073;-72
2021/10/05 00:05:48;;;;;;;19.95;3.78;;;15.30;99.90;;;14.82;100.00;100402.53;4117068;28;20063;-73
2021/10/05 00:07:50;;;;;;;17.33;3.88;;;15.40;99.90;;;14.81;100.00;100406.22;4117063;28;20069;-73
2021/10/05 00:09:50;;;;;;;12.88;2.35;;;15.40;99.90;;;14.82;100.00;100400.69;4117031;28;20031;-72
2021/10/05 00:11:51;;;;;;;17.90;3.20;;;15.40;99.90;;;14.84;100.00;100411.16;4115755;28;20035;-72
2021/10/05 00:13:52;;;;;;;17.92;2.88;;;15.40;99.90;;;14.80;100.00;100404.56;4116877;28;20491;-72
2021/10/05 00:15:53;;;;;;;17.83;3.03;;;15.40;99.90;;;14.79;100.00;100397.59;4115879;28;20031;-72
2021/10/05 00:17:54;;;;;;;25.90;4.40;;;15.50;99.90;;;14.78;100.00;100388.00;4115652;28;20019;-72
2021/10/05 00:19:55;;;;;;;17.48;3.75;;;15.50;99.90;;;14.81;100.00;100388.44;4116872;28;20466;-72
2021/10/05 00:21:56;;;;;;;11.93;2.30;;;15.40;99.90;;;14.80;100.00;100389.47;4131768;28;20022;-72
2021/10/05 00:23:57;;;;;;;16.30;2.60;;;15.40;99.90;;;14.74;100.00;100373.47;4115863;28;20031;-72
2021/10/05 00:25:58;;;;;;;16.73;3.17;;;15.40;99.90;;;14.73;100.00;100383.25;4116895;28;20406;-72
2021/10/05 00:27:59;;;;;;;19.27;3.47;;;15.40;99.90;;;14.70;100.00;100377.50;4131829;28;20046;-72
2021/10/05 00:30:02;;;;;;;13.15;3.00;;;15.40;99.90;;;14.71;100.00;100368.53;4116996;28;20026;-72
2021/10/05 00:32:04;;;;;;;12.80;3.67;;;15.40;99.90;;;14.76;100.00;100371.44;4118128;28;20057;-72
2021/10/05 00:34:05;;;;;;;10.93;3.10;;;15.40;99.90;;;14.72;100.00;100364.88;4119523;28;20037;-72
2021/10/05 00:36:07;;;;;;;9.43;1.92;;;15.30;99.90;;;14.78;100.00;100354.28;4119514;28;20488;-72
2021/10/05 00:38:07;;;;;;;11.68;2.63;;;15.40;99.90;;;14.79;100.00;100355.13;4118426;28;20093;-72
2021/10/05 00:40:09;;;;;;;10.25;2.20;;;15.40;99.90;;;14.71;100.00;100357.91;4119605;28;20026;-72
2021/10/05 00:42:10;;;;;;;17.30;3.25;;;15.40;99.90;;;14.66;100.00;100345.25;4118189;28;20031;-72
2021/10/05 00:44:11;;;;;;;15.35;2.65;;;15.30;99.90;;;14.60;100.00;100321.28;4150479;28;20045;-72
2021/10/05 00:46:12;;;;;;;13.45;3.38;;;15.30;99.90;;;14.58;100.00;100308.19;4119576;28;20113;-72
2021/10/05 00:48:13;;;;;;;14.90;3.35;;;15.30;99.90;;;14.54;100.00;100303.47;4118013;28;20066;-72
2021/10/05 00:50:15;;;;;;;14.27;4.03;;;15.30;99.90;;;14.48;100.00;100298.94;4119421;28;20027;-72
2021/10/05 00:52:19;;;;;;;12.57;2.80;;;15.20;99.90;;;14.55;100.00;100297.97;4118045;28;20033;-72
2021/10/05 00:54:20;;;;;;;18.67;3.30;;;15.20;99.90;;;14.59;100.00;100285.13;4118280;28;20026;-72
2021/10/05 00:56:23;;;;;;;11.57;3.60;;;15.20;99.90;;;14.56;100.00;100286.34;4118133;28;20031;-72
2021/10/05 00:58:23;;;;;;;12.85;2.67;;;15.20;99.90;;;14.58;100.00;100283.47;4118110;28;20030;-72
2021/10/05 01:00:24;;;;;;;9.75;2.10;;;15.20;99.90;;;14.60;100.00;100279.63;4118055;28;20110;-72
2021/10/05 01:02:26;;;;;;;8.95;2.75;;;15.20;99.90;;;14.58;100.00;100272.84;4117947;28;20031;-72
2021/10/05 01:04:28;;;;;;;7.32;2.00;;;15.10;99.90;;;14.49;100.00;100279.31;4134038;28;20113;-72
2021/10/05 01:06:29;;;;;;;13.73;3.08;;;15.10;99.90;;;14.54;100.00;100261.00;4118111;28;20026;-72
2021/10/05 01:08:32;;;;;;;7.00;1.80;;;15.10;99.90;;;14.50;100.00;100267.69;4119076;28;20035;-72
2021/10/05 01:10:33;;;;;;;5.78;1.85;;;15.10;99.90;;;14.51;100.00;100261.38;4118137;28;20023;-72
2021/10/05 01:12:34;;;;;;;9.55;2.10;;;15.10;99.90;;;14.52;100.00;100257.69;4118029;28;20506;-72
2021/10/05 01:14:35;;;;;;;12.48;2.00;;;15.10;99.90;;;14.47;100.00;100245.03;4117932;28;20051;-72
2021/10/05 01:16:37;;;;;;;9.25;2.42;;;15.10;99.90;;;14.50;100.00;100249.13;4117917;28;20029;-72
2021/10/05 01:18:37;;;;;;;9.13;2.33;;;15.10;99.90;;;14.49;100.00;100242.16;4119196;28;20027;-72
2021/10/05 01:21:03;;;;;;;7.00;1.85;;;15.10;99.90;;;14.54;100.00;100226.50;4119120;28;20027;-72
2021/10/05 01:23:04;;;;;;;7.32;2.22;;;15.10;99.90;;;14.51;100.00;100213.63;4119046;28;20540;-72
2021/10/05 01:25:12;;;;;;;6.28;1.48;;;15.10;99.90;;;14.53;100.00;100198.31;4119401;28;20035;-72
2021/10/05 01:27:13;;;;;;;5.18;1.23;;;15.10;99.90;;;14.57;100.00;100202.22;4118022;28;20035;-72
2021/10/05 01:29:18;;;;;;;8.50;1.40;;;15.10;99.90;;;14.61;100.00;100183.03;4119057;28;20038;-72
2021/10/05 01:31:19;;;;;;;7.30;1.80;;;15.20;99.90;;;14.53;100.00;100190.34;4117906;28;20486;-72
2021/10/05 01:33:24;;;;;;;6.65;1.65;;;15.20;99.90;;;14.52;100.00;100167.47;4118747;28;20070;-72
2021/10/05 01:35:25;;;;;;;3.47;1.50;;;15.20;99.90;;;14.54;100.00;100155.66;4117835;28;20502;-73
2021/10/05 01:37:26;;;;;;;4.82;1.35;;;15.10;99.90;;;14.54;100.00;100152.19;4117777;28;20031;-73
2021/10/05 01:39:35;;;;;;;7.10;1.50;;;15.20;99.90;;;14.63;100.00;100143.03;4118778;28;20019;-72
2021/10/05 01:41:36;;;;;;;5.10;1.48;;;15.20;99.90;;;14.66;100.00;100140.00;4117474;28;20544;-72
2021/10/05 01:43:37;;;;;;;4.22;1.27;;;15.20;99.90;;;14.64;100.00;100116.28;4117711;28;20027;-72
2021/10/05 01:45:40;;;;;;;5.45;1.23;;;15.20;99.90;;;14.64;100.00;100128.75;4101506;28;20031;-72
2021/10/05 01:47:42;;;;;;;7.65;1.13;;;15.20;99.90;;;14.61;100.00;100118.50;4118710;28;20544;-72
2021/10/05 01:49:43;;;;;;;3.20;0.90;;;15.30;99.90;;;14.65;100.00;100104.66;4118692;28;20030;-72
2021/10/05 01:51:45;;;;;;;4.22;1.00;;;15.30;99.90;;;14.65;100.00;100094.03;4117561;28;20114;-72
2021/10/05 01:53:46;;;;;;;6.97;1.77;;;15.30;99.90;;;14.69;100.00;100100.59;4117374;28;20115;-72
2021/10/05 01:55:47;;;;;;;4.57;0.90;;;15.30;99.90;;;14.74;100.00;100081.41;4117685;28;20027;-72
2021/10/05 01:57:48;;;;;;;7.20;1.20;;;15.30;99.90;;;14.73;100.00;100085.06;4118728;28;20038;-72
2021/10/05 01:59:49;;;;;;;7.57;1.17;;;15.30;99.90;;;14.72;100.00;100078.16;4117503;28;20031;-72
2021/10/05 02:01:50;;;;;;;4.22;1.20;;;15.30;99.90;;;14.74;100.00;100062.84;4118316;28;20486;-72
2021/10/05 02:03:51;;;;;;;3.85;0.90;;;15.40;99.90;;;14.76;100.00;100068.75;4118628;28;20030;-72
2021/10/05 02:05:52;;;;;;;3.38;1.30;;;15.40;99.90;;;14.74;100.00;100050.38;4118633;28;20080;-72
2021/10/05 02:07:53;;;;;;;2.58;1.30;;;15.40;99.90;;;14.75;100.00;100053.84;4117312;28;20026;-72
2021/10/05 02:09:54;;;;;;;4.65;1.23;;;15.40;99.90;;;14.82;100.00;100052.84;4118447;28;20402;-72
2021/10/05 02:11:55;;;;;;;3.33;1.20;;;15.40;99.90;;;14.81;100.00;100053.84;4117302;28;20023;-72
2021/10/05 02:13:56;;;;;;;2.85;0.70;;;15.40;99.90;;;14.82;100.00;100052.03;4116971;28;20051;-72
2021/10/05 02:15:57;;;;;;;2.28;0.70;;;15.40;99.90;;;14.83;100.00;100043.03;4117115;28;20578;-72
2021/10/05 02:17:57;;;;;;;2.80;1.00;;;15.50;99.90;;;14.87;100.00;100039.78;4118100;28;20023;-72
2021/10/05 02:19:59;;;;;;;2.08;0.80;;;15.50;99.90;;;14.91;100.00;100035.72;4116902;28;20110;-72
2021/10/05 02:21:59;;;;;;;3.78;0.90;;;15.50;99.90;;;14.86;100.00;100032.84;4117070;28;20034;-72
2021/10/05 02:26:21;;;;;;;2.00;0.82;;;15.50;99.90;;;14.94;100.00;100021.22;4118138;28;20042;-72
2021/10/05 02:28:22;;;;;;;2.05;1.00;;;15.50;99.90;;;14.91;100.00;100000.38;4117161;28;20110;-72
2021/10/05 02:30:23;;;;;;;2.35;1.10;;;15.50;99.90;;;14.92;100.00;99994.03;4118164;28;20035;-72
2021/10/05 02:32:25;;;;;;;1.83;0.70;;;15.60;99.90;;;14.92;100.00;99999.34;4116625;28;20035;-72
2021/10/05 02:34:26;;;;;;;4.05;0.90;;;15.60;99.90;;;14.95;100.00;99988.31;4132740;28;20026;-72
2021/10/05 02:36:27;;;;;;;3.35;0.80;;;15.60;99.90;;;14.97;100.00;99975.66;4116927;28;20553;-72
2021/10/05 02:38:28;;;;;;;1.45;0.68;;;15.60;99.90;;;14.93;100.00;99979.75;4118030;28;20054;-72
2021/10/05 02:40:28;;;;;;;1.83;0.90;;;15.60;99.90;;;14.93;100.00;99969.94;4117953;28;20113;-72
2021/10/05 02:42:29;;;;;;;1.85;0.75;;;15.60;99.90;;;14.95;100.00;99953.81;4117808;28;20023;-72
2021/10/05 02:44:30;;;;;;;2.80;0.93;;;15.60;99.90;;;14.95;100.00;99951.97;4118010;28;20573;-72
2021/10/05 02:46:31;;;;;;;2.60;0.70;;;15.60;99.90;;;14.99;100.00;99952.38;4118022;28;20022;-72
2021/10/05 02:48:32;;;;;;;1.38;0.75;;;15.60;99.90;;;14.99;100.00;99932.97;4117758;28;20037;-72
2021/10/05 02:50:33;;;;;;;3.25;0.88;;;15.60;99.90;;;14.98;100.00;99924.19;4117989;28;20031;-72
2021/10/05 02:52:34;;;;;;;1.70;0.80;;;15.60;99.90;;;15.01;100.00;99915.81;4132584;28;20030;-72
2021/10/05 02:54:35;;;;;;;2.83;1.00;;;15.60;99.90;;;15.02;100.00;99917.44;4117247;28;20026;-72
2021/10/05 02:56:36;;;;;;;4.32;1.27;;;15.70;99.90;;;14.97;100.00;99917.22;4116541;28;20038;-72
2021/10/05 02:58:37;;;;;;;1.90;0.70;;;15.60;99.90;;;15.00;100.00;99894.75;4117756;28;20106;-72
2021/10/05 03:00:38;;;;;;;2.95;0.73;;;15.60;99.90;;;15.01;100.00;99886.59;4116786;28;20038;-72
2021/10/05 03:02:38;;;;;;;4.57;1.20;;;15.60;99.90;;;15.06;100.00;99876.16;4116537;28;20422;-72
2021/10/05 03:04:41;;;;;;;1.80;0.70;;;15.70;99.90;;;15.09;100.00;99893.53;4132669;28;20030;-72
2021/10/05 03:06:42;;;;;;;5.45;1.08;;;15.70;99.90;;;15.05;100.00;99887.81;4116618;28;20027;-72
2021/10/05 03:08:44;;;;;;;3.45;0.90;;;15.70;99.90;;;15.09;100.00;99907.63;4116652;28;20524;-72
2021/10/05 03:10:45;;;;;;;4.45;0.90;;;15.70;99.90;;;15.10;100.00;99893.34;4117804;28;20033;-72
2021/10/05 03:12:46;;;;;;;2.22;0.80;;;15.70;99.90;;;15.09;100.00;99872.28;4116500;28;20545;-72
2021/10/05 03:14:46;;;;;;;3.05;1.30;;;15.70;99.90;;;15.10;100.00;99890.69;4117664;28;20065;-72
2021/10/05 03:16:48;;;;;;;1.60;1.10;;;15.70;99.90;;;15.07;100.00;99885.78;4117549;28;20057;-72
2021/10/05 03:18:49;;;;;;;5.72;1.40;;;15.80;99.90;;;15.10;100.00;99880.03;4116611;28;20027;-72
2021/10/05 03:20:50;;;;;;;3.10;1.08;;;15.70;99.90;;;15.10;100.00;99868.59;4132511;28;20030;-72
2021/10/05 03:22:51;;;;;;;1.48;0.68;;;15.70;99.90;;;15.13;100.00;99884.13;4116436;28;20039;-72
2021/10/05 03:24:52;;;;;;;3.80;0.80;;;15.70;99.90;;;15.18;100.00;99887.78;4117687;28;20034;-72
2021/10/05 03:26:53;;;;;;;4.47;0.90;;;15.80;99.90;;;15.15;100.00;99872.28;4116496;28;20035;-72
2021/10/05 03:28:54;;;;;;;2.50;0.82;;;15.80;99.90;;;15.16;100.00;99873.91;4116349;28;20441;-72
2021/10/05 03:30:55;;;;;;;2.65;0.88;;;15.80;99.90;;;15.19;100.00;99873.50;4117537;28;20031;-72
2021/10/05 03:32:55;;;;;;;2.83;0.77;;;15.70;99.90;;;15.18;100.00;99869.19;4115940;28;20101;-72
2021/10/05 03:34:56;;;;;;;4.30;0.80;;;15.80;99.90;;;15.20;100.00;99880.41;4117587;28;20066;-72
2021/10/05 03:36:57;;;;;;;1.88;0.70;;;15.90;99.90;;;15.24;100.00;99886.97;4117513;28;20027;-72
2021/10/05 03:38:58;;;;;;;5.32;0.80;;;15.90;99.90;;;15.25;100.00;99885.13;4116312;28;20031;-72
2021/10/05 03:41:00;;;;;;;2.53;0.60;;;15.90;99.90;;;15.25;100.00;99888.63;4116192;28;20110;-72
2021/10/05 03:43:00;;;;;;;3.72;0.93;;;15.90;99.90;;;15.26;100.00;99889.44;4116358;28;20084;-72
2021/10/05 03:45:02;;;;;;;3.03;0.80;;;15.90;99.90;;;15.28;100.00;99887.38;4116218;28;20039;-72
2021/10/05 03:47:04;;;;;;;3.58;0.90;;;15.90;99.90;;;15.34;100.00;99886.56;4148109;28;20456;-72
2021/10/05 03:49:05;;;;;;;3.83;1.10;;;16.00;99.90;;;15.36;100.00;99882.66;4116056;28;20027;-72
2021/10/05 03:51:06;;;;;;;3.72;1.75;;;16.00;99.90;;;15.40;100.00;99902.50;4116263;28;20072;-72
2021/10/05 03:53:07;;;;;;;4.03;1.10;;;16.00;99.90;;;15.44;100.00;99900.25;4132180;28;20038;-72
2021/10/05 03:55:09;;;;;;;3.13;0.82;;;16.00;99.90;;;15.41;100.00;99913.94;4116117;28;20031;-72
2021/10/05 03:57:10;;;;;;;2.95;1.35;;;16.00;99.90;;;15.45;100.00;99958.50;4115989;28;20102;-72
2021/10/05 03:59:15;;;;;;;3.22;0.80;;;16.10;99.90;;;15.26;100.00;99969.94;4100136;28;20024;-72
2021/10/05 04:01:16;;;;;;;1.98;0.60;;;16.00;99.90;;;14.89;100.00;99968.72;4117226;28;20083;-72
2021/10/05 04:03:17;;;;;;;2.38;0.60;;;15.80;99.90;;;14.67;100.00;99972.53;4115923;28;20095;-72
2021/10/05 04:05:18;;;;;;;0.90;0.70;;;15.60;99.90;;;14.45;100.00;99981.69;4117751;28;20527;-72
2021/10/05 04:07:19;;;;;;;1.15;0.60;;;15.40;99.90;;;14.47;100.00;99984.13;4120170;28;20027;-72
2021/10/05 04:09:20;;;;;;;2.95;0.70;;;15.20;99.90;;;14.39;100.00;99999.19;4118965;28;20030;-72
2021/10/05 04:11:21;;;;;;;1.02;0.60;;;15.10;99.90;;;14.27;100.00;99997.31;4120122;28;20034;-72
2021/10/05 04:13:22;;;;;;;2.75;0.60;;;15.00;99.90;;;14.17;100.00;100002.16;4118705;28;20030;-72
2021/10/05 04:15:23;;;;;;;4.28;1.52;;;14.90;99.90;;;14.04;100.00;100007.38;4103008;29;20074;-72
2021/10/05 04:17:24;;;;;;;2.45;1.13;;;14.80;99.90;;;13.86;100.00;100019.31;4103842;28;20079;-72
2021/10/05 04:19:25;;;;;;;1.90;0.70;;;14.60;99.90;;;13.90;100.00;100021.56;4103998;28;20035;-72
2021/10/05 04:21:27;;;;;;;2.58;0.70;;;14.50;99.90;;;13.73;100.00;100035.16;4102718;29;20063;-72
2021/10/05 04:23:27;;;;;;;2.35;0.80;;;14.50;99.90;;;13.63;100.00;100044.44;4103946;28;20112;-72
2021/10/05 04:25:29;;;;;;;3.10;0.80;;;14.30;99.90;;;13.65;100.00;100059.13;4102682;28;20034;-72
2021/10/05 04:27:29;;;;;;;3.85;0.80;;;14.20;99.90;;;13.47;100.00;100065.94;4134805;28;20037;-72
2021/10/05 04:29:30;;;;;;;4.32;0.90;;;14.10;99.90;;;13.32;100.00;100074.75;4103759;28;20024;-72
2021/10/05 04:31:31;;;;;;;3.72;0.98;;;14.00;99.90;;;13.11;100.00;100077.41;4102510;29;20066;-72
2021/10/05 04:33:32;;;;;;;4.85;1.00;;;13.90;99.90;;;13.08;100.00;100103.44;4118437;28;20027;-71
2021/10/05 04:35:33;;;;;;;4.93;1.08;;;13.80;99.90;;;13.05;100.00;100094.00;4103771;28;20403;-72
2021/10/05 04:37:34;;;;;;;4.90;1.30;;;13.70;99.90;;;13.07;100.00;100102.59;4103624;28;20023;-72
2021/10/05 04:39:36;;;;;;;5.70;1.75;;;13.60;99.90;;;13.05;100.00;100125.78;4103805;28;20272;-71
2021/10/05 04:41:37;;;;;;;3.92;1.00;;;13.60;99.90;;;13.00;100.00;100117.56;4102450;29;20058;-72
2021/10/05 04:43:37;;;;;;;8.48;1.17;;;13.60;99.90;;;12.88;100.00;100127.00;4103638;28;20050;-72
2021/10/05 04:45:38;;;;;;;7.50;1.90;;;13.50;99.90;;;12.88;100.00;100142.88;4103562;28;20503;-72
2021/10/05 04:47:39;;;;;;;4.07;1.48;;;13.40;99.90;;;12.81;100.00;100133.25;4103500;28;20091;-72
2021/10/05 04:49:41;;;;;;;4.55;1.10;;;13.40;99.90;;;12.77;100.00;100156.59;4103412;28;20027;-72
2021/10/05 04:51:42;;;;;;;6.63;1.75;;;13.40;99.90;;;12.86;100.00;100168.72;4102407;29;20073;-72
2021/10/05 04:53:43;;;;;;;8.38;1.65;;;13.30;99.90;;;12.83;100.00;100163.81;4102024;29;20031;-72
2021/10/05 04:55:44;;;;;;;4.03;1.17;;;13.30;99.90;;;12.82;100.00;100159.50;4103501;28;21389;-72
2021/10/05 04:57:45;;;;;;;5.18;1.30;;;13.30;99.90;;;12.73;100.00;100179.13;4103512;28;20118;-72
2021/10/05 04:59:46;;;;;;;3.38;1.27;;;13.20;99.90;;;12.74;100.00;100186.91;4103439;28;20441;-72
2021/10/05 05:01:48;;;;;;;7.97;1.17;;;13.20;99.90;;;12.75;100.00;100187.75;4103123;29;20019;-72
2021/10/05 05:03:49;;;;;;;7.95;2.10;;;13.20;99.90;;;12.81;100.00;100199.41;4103393;29;20505;-72
2021/10/05 05:05:50;;;;;;;5.78;1.30;;;13.20;99.90;;;12.77;100.00;100196.31;4103363;28;20069;-72
2021/10/05 05:07:55;;;;;;;11.40;2.15;;;13.10;99.90;;;12.69;100.00;100199.06;4102120;29;20031;-72
2021/10/05 05:09:56;;;;;;;10.10;2.25;;;13.10;99.90;;;12.68;100.00;100208.81;4103164;28;20067;-72
2021/10/05 05:11:57;;;;;;;6.85;1.30;;;13.10;99.90;;;12.78;100.00;100219.13;4101912;29;20043;-72
2021/10/05 05:14:05;;;;;;;11.77;1.67;;;13.20;99.90;;;12.73;100.00;100217.00;4107774;28;20039;-72
2021/10/05 05:16:06;;;;;;;5.95;1.35;;;13.10;99.90;;;12.67;100.00;100214.28;4118559;28;20516;-72
2021/10/05 05:18:07;;;;;;;4.03;1.20;;;13.10;99.90;;;12.67;100.00;100225.69;4133546;28;20022;-72
2021/10/05 05:20:08;;;;;;;9.52;2.33;;;13.00;99.90;;;12.63;100.00;100234.19;4119209;28;20113;-72
2021/10/05 05:22:09;;;;;;;8.35;1.88;;;13.00;99.90;;;12.59;100.00;100235.53;4119130;28;20506;-72
2021/10/05 05:24:10;;;;;;;5.25;1.58;;;12.90;99.90;;;12.47;100.00;100229.88;4101785;28;20036;-73
2021/10/05 05:26:11;;;;;;;5.18;1.35;;;13.00;99.90;;;12.49;100.00;100243.72;4118947;28;20023;-72
2021/10/05 05:28:14;;;;;;;10.38;1.52;;;12.80;99.90;;;12.53;100.00;100252.13;4117985;28;20058;-72
2021/10/05 05:30:15;;;;;;;6.07;1.52;;;12.90;99.90;;;12.42;100.00;100253.41;4117486;28;20047;-72
2021/10/05 05:32:17;;;;;;;10.15;1.65;;;12.80;99.90;;;12.47;100.00;100258.13;4112043;28;20041;-72
2021/10/05 05:34:20;;;;;;;7.90;1.80;;;12.90;99.90;;;12.57;100.00;100269.31;4117691;28;20065;-72
2021/10/05 05:36:21;;;;;;;6.82;2.00;;;12.90;99.90;;;12.41;100.00;100269.44;4133800;28;20095;-72
2021/10/05 05:38:23;;;;;;;7.57;1.85;;;12.80;99.90;;;12.45;100.00;100274.22;4117875;28;20054;-72
2021/10/05 05:40:24;;;;;;;7.55;1.48;;;12.80;99.90;;;12.44;100.00;100263.78;4118924;28;20057;-71
2021/10/05 05:42:25;;;;;;;15.07;2.05;;;12.80;99.90;;;12.29;100.00;100281.44;4117578;28;20429;-71
2021/10/05 05:44:25;;;;;;;7.82;1.67;;;12.80;99.90;;;12.33;100.00;100288.03;4118982;28;20030;-71
2021/10/05 05:46:26;;;;;;;6.22;2.05;;;12.70;99.90;;;12.33;100.00;100293.31;4118697;28;20027;-71
2021/10/05 05:48:27;;;;;;;8.45;2.20;;;12.70;99.90;;;12.26;100.00;100297.66;4117578;28;20518;-72
2021/10/05 05:50:29;;;;;;;8.15;2.05;;;12.70;99.90;;;12.25;100.00;100302.13;4117764;28;20104;-72
2021/10/05 05:52:32;;;;;;;6.18;2.28;;;12.70;99.90;;;12.17;100.00;100308.31;4133518;28;20038;-71
2021/10/05 05:54:33;;;;;;;9.82;1.98;;;12.60;99.90;;;12.13;100.00;100308.81;4118853;28;20092;-71
2021/10/05 05:56:35;;;;;;;11.73;2.15;;;12.50;99.90;;;12.26;100.00;100316.19;4119779;28;20042;-71
2021/10/05 05:58:36;;;;;;;13.48;2.63;;;12.50;99.90;;;12.32;100.00;100318.13;4118591;28;20105;-72
2021/10/05 06:00:37;;;;;;;5.97;1.70;;;12.60;99.90;;;12.31;100.00;100327.03;4150539;28;20026;-69
2021/10/05 06:02:39;;;;;;;6.03;1.63;;;12.60;99.90;;;12.14;100.00;100327.19;4102068;28;20016;-69
2021/10/05 06:04:40;;;;;;;10.90;1.67;;;12.60;99.90;;;12.17;100.00;100341.88;4119433;28;20498;-70
2021/10/05 06:06:41;;;;;;;10.43;2.38;;;12.50;99.90;;;12.11;100.00;100335.47;4119363;28;20023;-69
2021/10/05 06:08:42;;;;;;;8.82;2.30;;;12.60;99.90;;;12.21;100.00;100343.16;4102666;28;20066;-69
2021/10/05 06:10:43;;;;;;;9.82;2.05;;;12.50;99.90;;;12.10;100.00;100333.81;4119965;28;20101;-73
2021/10/05 06:12:45;;;;;;;7.60;1.77;;;12.50;99.90;;;12.15;100.00;100352.63;4119687;28;20019;-73
2021/10/05 06:14:47;;;;;;;13.77;1.90;;;12.50;99.90;;;12.13;100.00;100357.25;4119827;28;20126;-73
2021/10/05 06:16:48;;;;;;;6.85;1.80;;;12.50;99.90;;;12.18;100.00;100365.47;4118601;28;20038;-72
2021/10/05 06:18:49;;;;;;;17.17;2.85;;;12.50;99.90;;;12.15;100.00;100368.50;4118365;28;20034;-72
2021/10/05 06:20:50;;;;;;;12.55;2.78;;;12.50;99.90;;;12.16;100.00;100366.66;4119043;28;20046;-72
2021/10/05 06:22:51;;;;;;;6.38;1.85;;;12.50;99.90;;;12.23;100.00;100374.72;4117961;28;20034;-72
2021/10/05 06:24:52;;;;;;;8.35;1.88;;;12.50;99.90;;;12.13;100.00;100381.03;4101857;28;20027;-72
2021/10/05 06:26:53;;;;;;;9.10;2.30;;;12.50;99.90;;;11.99;100.00;100381.81;4108018;28;20106;-72
2021/10/05 06:28:54;;;;;;;7.43;1.70;;;12.50;99.90;;;12.07;100.00;100381.75;4116104;28;20053;-73
2021/10/05 06:30:55;;;;;;;13.23;2.28;;;12.50;99.90;;;12.02;100.00;100384.09;4118365;28;20038;-73
2021/10/05 06:32:57;;;;;;;8.90;2.38;;;12.40;99.90;;;12.12;100.00;100394.47;4116718;28;20033;-73
2021/10/05 06:34:58;;;;;;;8.05;2.58;;;12.40;99.90;;;12.13;100.00;100383.69;4117396;28;20421;-73
2021/10/05 06:36:58;;;;;;;10.75;2.30;;;12.40;99.90;;;12.12;100.00;100399.75;4101004;28;20023;-73
2021/10/05 06:38:59;;;;;;;9.60;2.10;;;12.40;99.90;;;12.02;100.00;100402.59;4100885;28;20039;-72
2021/10/05 06:41:00;;;;;;;12.63;3.00;;;12.40;99.90;;;11.97;100.00;100404.13;4130784;28;20555;-72
2021/10/05 06:43:03;;;;;;;5.93;2.42;;;12.40;99.90;;;12.00;100.00;100417.81;4118123;28;20031;-72
2021/10/05 06:45:07;;;;;;;16.08;2.78;;;12.40;99.90;;;12.07;100.00;100421.41;4118032;28;20031;-73
2021/10/05 06:47:08;;;;;;;10.02;1.70;;;12.40;99.90;;;12.05;100.00;100426.06;4117451;28;20050;-73
2021/10/05 06:49:09;;;;;;;6.60;1.90;;;12.40;99.90;;;12.09;100.00;100432.66;4116610;28;20030;-73
2021/10/05 06:51:10;;;;;;;12.18;2.30;;;12.30;99.90;;;12.12;100.00;100434.13;4117809;28;20100;-73
2021/10/05 06:53:16;;;;;;;9.73;2.35;;;12.40;99.90;;;12.10;100.00;100436.09;4116743;28;20062;-74
2021/10/05 06:55:17;;;;;;;27.58;3.78;;;12.40;99.90;;;11.95;100.00;100438.63;4147222;28;20032;-73
2021/10/05 06:57:18;;;;;;;9.30;2.05;;;12.40;99.90;;;11.73;100.00;100428.00;4116161;28;20055;-74
2021/10/05 06:59:19;;;;;;;9.23;2.15;;;12.30;99.90;;;11.88;100.00;100450.09;4132815;28;20080;-74
2021/10/05 07:01:20;;;;;;;10.18;2.53;;;12.30;99.90;;;11.80;100.00;100450.94;4117660;28;20398;-74
2021/10/05 07:03:21;;;;;;;6.07;2.63;;;12.30;99.90;;;11.62;100.00;100442.38;4117806;28;20046;-74
2021/10/05 07:05:22;;;;;;;11.40;3.00;;;12.30;99.90;;;11.73;100.00;100452.63;4116494;28;20026;-74
2021/10/05 07:07:23;;;;;;;9.95;2.55;;;12.20;99.90;;;11.82;100.00;100448.97;4116706;28;20033;-74
2021/10/05 07:09:24;;;;;;;14.43;2.53;;;12.30;99.90;;;11.76;100.00;100451.44;4117780;28;20034;-74
2021/10/05 07:11:25;;;;;;;12.23;2.28;;;12.30;99.90;;;11.82;100.00;100459.53;4117453;28;20031;-74
2021/10/05 07:13:26;;;;;;;13.45;2.30;;;12.30;99.90;;;11.76;100.00;100469.94;4115204;28;20027;-74
2021/10/05 07:15:27;;;;;;;11.90;2.20;;;12.30;99.90;;;11.75;100.00;100466.47;4116380;28;20035;-74
2021/10/05 07:17:28;;;;;;;9.95;2.35;;;12.30;99.90;;;11.72;100.00;100466.00;4116228;28;20054;-74
2021/10/05 07:19:29;;;;;;;8.63;2.00;;;12.30;99.90;;;11.82;100.00;100472.75;4117727;28;20062;-73
2021/10/05 07:21:30;;;;;;;8.25;2.92;;;12.30;99.90;;;11.80;100.00;100482.63;4117405;28;20463;-74
2021/10/05 07:23:31;;;;;;;12.45;2.75;;;12.30;99.90;;;11.80;100.00;100490.56;4116584;28;20578;-74
2021/10/05 07:25:32;;;;;;;11.50;2.80;;;12.30;99.90;;;11.96;100.00;100487.06;4117545;28;20023;-74
2021/10/05 07:27:33;;;;;;;10.68;1.77;;;12.40;99.90;;;11.76;100.00;100499.84;4116426;28;20131;-73
2021/10/05 07:29:34;;;;;;;9.52;2.03;;;12.40;99.90;;;11.87;100.00;100488.91;4116214;28;20031;-73
2021/10/05 07:31:35;;;;;;;12.80;2.15;;;12.40;99.90;;;11.77;100.00;100503.31;4117368;28;20096;-74
2021/10/05 07:33:36;;;;;;;13.38;1.88;;;12.40;99.90;;;11.82;100.00;100506.28;4116354;28;20035;-74
2021/10/05 07:35:37;;;;;;;8.13;2.47;;;12.40;99.90;;;11.70;100.00;100503.16;4116400;28;20113;-73
2021/10/05 07:37:37;;;;;;;15.13;2.75;;;12.40;99.90;;;11.81;100.00;100507.25;4117351;28;20375;-74
2021/10/05 07:39:39;;;;;;;18.35;2.92;;;12.40;99.90;;;11.90;100.00;100509.72;4117046;28;20120;-74
2021/10/05 07:41:43;;;;;;;10.38;2.88;;;12.40;99.90;;;11.86;100.00;100518.13;4116187;28;20031;-74
2021/10/05 07:43:44;;;;;;;;;;;12.50;99.90;;;11.75;100.00;100505.28;4116565;28;20030;-74
2021/10/05 07:45:45;;;;;;;6.28;1.70;;;12.40;99.90;;;11.80;100.00;100524.91;4117358;28;20284;-74
2021/10/05 07:47:47;;;;;;;13.25;3.17;;;12.50;99.90;;;11.79;100.00;100518.00;4115995;28;20039;-74
2021/10/05 07:49:51;;;;;;;8.63;2.33;;;12.50;99.90;;;11.99;100.00;100524.53;4115965;28;20065;-73
2021/10/05 07:51:53;;;;;;;13.07;2.15;;;12.60;99.90;;;12.00;100.00;100533.31;4117276;28;20507;-74
2021/10/05 07:53:54;;;;;;;10.23;2.78;;;12.60;99.90;;;12.15;100.00;100524.50;4115890;28;20031;-74
2021/10/05 07:55:55;;;;;;;10.98;2.90;;;12.60;99.90;;;12.12;100.00;100535.41;4117351;28;20441;-74
2021/10/05 07:57:57;;;;;;;7.40;1.75;;;12.70;99.90;;;12.27;100.00;100545.28;4116112;28;20031;-74
2021/10/05 07:59:58;;;;;;;12.23;3.05;;;12.80;99.90;;;12.17;100.00;100554.22;4100292;28;20023;-74
2021/10/05 08:01:59;;;;;;;13.35;2.63;;;12.80;99.90;;;12.19;100.00;100546.94;4131578;28;20033;-74
2021/10/05 08:04:00;;;;;;;12.18;2.03;;;12.80;99.90;;;12.20;100.00;100551.25;4115969;28;20498;-74
2021/10/05 08:06:01;;;;;;;12.18;2.85;;;12.90;99.90;;;12.26;100.00;100562.97;4117000;28;20037;-74
2021/10/05 08:08:05;;;;;;;8.98;2.15;;;12.90;99.90;;;12.49;100.00;100553.25;4117123;28;20134;-74
2021/10/05 08:10:07;;;;;;;8.45;1.85;;;13.00;99.90;;;12.55;100.00;100563.16;4115809;28;20121;-74
2021/10/05 08:12:08;;;;;;;10.00;2.40;;;13.00;99.90;;;12.39;100.00;100563.25;4117163;28;20096;-74
2021/10/05 08:14:09;;;;;;;12.32;1.98;;;13.10;99.90;;;12.34;100.00;100570.03;4116765;28;20051;-74
2021/10/05 08:16:10;;;;;;;14.25;2.97;;;13.10;99.90;;;12.54;100.00;100563.34;4117011;28;20019;-74
2021/10/05 08:18:11;;;;;;;11.98;2.30;;;13.10;99.90;;;12.73;100.00;100576.94;4099514;28;20122;-74
2021/10/05 08:20:12;;;;;;;12.40;3.30;;;13.20;99.90;;;12.62;100.00;100576.53;4117007;28;20120;-74
2021/10/05 08:22:13;;;;;;;8.50;2.67;;;13.20;99.90;;;12.66;100.00;100578.63;4115897;28;20031;-74